sensor_id;sensor_type;location;lat;lon;timestamp;temperature;humidity
70550;DHT22;58101;48.658;2.328;2024-01-11T00:00:59;0.30;99.90
70550;DHT22;58101;48.658;2.328;2024-01-11T00:03:24;0.20;99.90
70550;DHT22;58101;48.658;2.328;2024-01-11T00:05:50;0.20;99.90
70550;DHT22;58101;48.658;2.328;2024-01-11T00:08:16;0.20;99.90
70550;DHT22;58101;48.658;2.328;2024-01-11T00:10:42;0.20;99.90
70550;DHT22;58101;48.658;2.328;2024-01-11T00:13:07;0.10;99.90
70550;DHT22;58101;48.658;2.328;2024-01-11T00:15:33;0.10;99.90
70550;DHT22;58101;48.658;2.328;2024-01-11T00:17:58;0.00;99.90
70550;DHT22;58101;48.658;2.328;2024-01-11T00:20:24;0.00;99.90
70550;DHT22;58101;48.658;2.328;2024-01-11T00:22:50;0.00;99.90
70550;DHT22;58101;48.658;2.328;2024-01-11T00:25:15;-0.10;99.90
70550;DHT22;58101;48.658;2.328;2024-01-11T00:27:41;-0.10;99.90
70550;DHT22;58101;48.658;2.328;2024-01-11T00:30:07;-0.10;99.90
70550;DHT22;58101;48.658;2.328;2024-01-11T00:32:33;-0.10;99.90
70550;DHT22;58101;48.658;2.328;2024-01-11T00:34:58;-0.10;99.90
70550;DHT22;58101;48.658;2.328;2024-01-11T00:37:24;-0.20;99.90
70550;DHT22;58101;48.658;2.328;2024-01-11T00:39:50;-0.20;99.90
70550;DHT22;58101;48.658;2.328;2024-01-11T00:42:16;-0.20;99.90
70550;DHT22;58101;48.658;2.328;2024-01-11T00:44:41;-0.20;99.90
70550;DHT22;58101;48.658;2.328;2024-01-11T00:47:07;-0.20;99.90
70550;DHT22;58101;48.658;2.328;2024-01-11T00:49:32;-0.20;99.90
70550;DHT22;58101;48.658;2.328;2024-01-11T00:51:58;-0.20;99.90
70550;DHT22;58101;48.658;2.328;2024-01-11T00:54:24;-0.20;99.90
70550;DHT22;58101;48.658;2.328;2024-01-11T00:56:50;-0.30;99.90
70550;DHT22;58101;48.658;2.328;2024-01-11T00:59:15;-0.30;99.90
70550;DHT22;58101;48.658;2.328;2024-01-11T01:01:49;-0.30;99.90
70550;DHT22;58101;48.658;2.328;2024-01-11T01:04:15;-0.30;99.90
70550;DHT22;58101;48.658;2.328;2024-01-11T01:06:41;-0.30;99.90
70550;DHT22;58101;48.658;2.328;2024-01-11T01:09:07;-0.30;99.90
70550;DHT22;58101;48.658;2.328;2024-01-11T01:11:32;-0.30;99.90
70550;DHT22;58101;48.658;2.328;2024-01-11T01:13:58;-0.30;99.90
70550;DHT22;58101;48.658;2.328;2024-01-11T01:16:23;-0.40;99.90
70550;DHT22;58101;48.658;2.328;2024-01-11T01:18:49;-0.40;99.90
70550;DHT22;58101;48.658;2.328;2024-01-11T01:21:14;-0.40;99.90
70550;DHT22;58101;48.658;2.328;2024-01-11T01:23:40;-0.40;99.90
70550;DHT22;58101;48.658;2.328;2024-01-11T01:26:06;-0.40;99.90
70550;DHT22;58101;48.658;2.328;2024-01-11T01:28:32;-0.40;99.90
70550;DHT22;58101;48.658;2.328;2024-01-11T01:30:58;-0.40;99.90
70550;DHT22;58101;48.658;2.328;2024-01-11T01:33:23;-0.50;99.90
70550;DHT22;58101;48.658;2.328;2024-01-11T01:35:49;-0.50;99.90
70550;DHT22;58101;48.658;2.328;2024-01-11T01:38:15;-0.50;99.90
70550;DHT22;58101;48.658;2.328;2024-01-11T01:40:40;-0.50;99.90
70550;DHT22;58101;48.658;2.328;2024-01-11T01:43:07;-0.50;99.90
70550;DHT22;58101;48.658;2.328;2024-01-11T01:45:35;-0.50;99.90
70550;DHT22;58101;48.658;2.328;2024-01-11T01:48:02;-0.50;99.90
70550;DHT22;58101;48.658;2.328;2024-01-11T01:50:27;-0.50;99.90
70550;DHT22;58101;48.658;2.328;2024-01-11T01:52:55;-0.50;99.90
70550;DHT22;58101;48.658;2.328;2024-01-11T01:55:22;-0.50;99.90
70550;DHT22;58101;48.658;2.328;2024-01-11T01:57:50;-0.50;99.90
70550;DHT22;58101;48.658;2.328;2024-01-11T02:00:16;-0.60;99.90
70550;DHT22;58101;48.658;2.328;2024-01-11T02:02:45;-0.60;99.90
70550;DHT22;58101;48.658;2.328;2024-01-11T02:05:13;-0.60;99.90
70550;DHT22;58101;48.658;2.328;2024-01-11T02:07:39;-0.60;99.90
70550;DHT22;58101;48.658;2.328;2024-01-11T02:10:07;-0.60;99.90
70550;DHT22;58101;48.658;2.328;2024-01-11T02:12:34;-0.60;99.90
70550;DHT22;58101;48.658;2.328;2024-01-11T02:15:00;-0.70;99.90
70550;DHT22;58101;48.658;2.328;2024-01-11T02:17:26;-0.70;99.90
70550;DHT22;58101;48.658;2.328;2024-01-11T02:19:52;-0.70;99.90
70550;DHT22;58101;48.658;2.328;2024-01-11T02:22:25;-0.70;99.90
70550;DHT22;58101;48.658;2.328;2024-01-11T02:24:52;-0.70;99.90
70550;DHT22;58101;48.658;2.328;2024-01-11T02:27:18;-0.70;99.90
70550;DHT22;58101;48.658;2.328;2024-01-11T02:29:44;-0.70;99.90
70550;DHT22;58101;48.658;2.328;2024-01-11T02:32:10;-0.70;99.90
70550;DHT22;58101;48.658;2.328;2024-01-11T02:34:36;-0.70;99.90
70550;DHT22;58101;48.658;2.328;2024-01-11T02:37:02;-0.70;99.90
70550;DHT22;58101;48.658;2.328;2024-01-11T02:39:28;-0.70;99.90
70550;DHT22;58101;48.658;2.328;2024-01-11T02:41:56;-0.70;99.90
70550;DHT22;58101;48.658;2.328;2024-01-11T02:44:22;-0.70;99.90
70550;DHT22;58101;48.658;2.328;2024-01-11T02:46:48;-0.70;99.90
70550;DHT22;58101;48.658;2.328;2024-01-11T02:49:13;-0.80;99.90
70550;DHT22;58101;48.658;2.328;2024-01-11T02:51:39;-0.80;99.90
70550;DHT22;58101;48.658;2.328;2024-01-11T02:54:05;-0.80;99.90
70550;DHT22;58101;48.658;2.328;2024-01-11T02:56:30;-0.80;99.90
70550;DHT22;58101;48.658;2.328;2024-01-11T02:58:56;-0.80;99.90
70550;DHT22;58101;48.658;2.328;2024-01-11T03:01:21;-0.80;99.90
70550;DHT22;58101;48.658;2.328;2024-01-11T03:03:47;-0.80;99.90
70550;DHT22;58101;48.658;2.328;2024-01-11T03:06:13;-0.80;99.90
70550;DHT22;58101;48.658;2.328;2024-01-11T03:08:39;-0.80;99.90
70550;DHT22;58101;48.658;2.328;2024-01-11T03:11:05;-0.80;99.90
70550;DHT22;58101;48.658;2.328;2024-01-11T03:13:31;-0.80;99.90
70550;DHT22;58101;48.658;2.328;2024-01-11T03:15:57;-0.80;99.90
70550;DHT22;58101;48.658;2.328;2024-01-11T03:18:22;-0.80;99.90
70550;DHT22;58101;48.658;2.328;2024-01-11T03:20:48;-0.80;99.90
70550;DHT22;58101;48.658;2.328;2024-01-11T03:23:14;-0.80;99.90
70550;DHT22;58101;48.658;2.328;2024-01-11T03:25:39;-0.80;99.90
70550;DHT22;58101;48.658;2.328;2024-01-11T03:28:05;-0.90;99.90
70550;DHT22;58101;48.658;2.328;2024-01-11T03:30:30;-0.90;99.90
70550;DHT22;58101;48.658;2.328;2024-01-11T03:32:56;-0.90;99.90
70550;DHT22;58101;48.658;2.328;2024-01-11T03:35:22;-0.90;99.90
70550;DHT22;58101;48.658;2.328;2024-01-11T03:37:47;-0.90;99.90
70550;DHT22;58101;48.658;2.328;2024-01-11T03:40:13;-0.90;99.90
70550;DHT22;58101;48.658;2.328;2024-01-11T03:42:39;-0.90;99.90
70550;DHT22;58101;48.658;2.328;2024-01-11T03:45:07;-0.90;99.90
70550;DHT22;58101;48.658;2.328;2024-01-11T03:47:32;-0.90;99.90
70550;DHT22;58101;48.658;2.328;2024-01-11T03:49:58;-0.90;99.90
70550;DHT22;58101;48.658;2.328;2024-01-11T03:52:23;-0.90;99.90
70550;DHT22;58101;48.658;2.328;2024-01-11T03:54:49;-0.90;99.90
70550;DHT22;58101;48.658;2.328;2024-01-11T03:57:15;-1.00;99.90
70550;DHT22;58101;48.658;2.328;2024-01-11T03:59:41;-1.00;99.90
70550;DHT22;58101;48.658;2.328;2024-01-11T04:02:07;-0.90;99.90
70550;DHT22;58101;48.658;2.328;2024-01-11T04:04:33;-1.00;99.90
70550;DHT22;58101;48.658;2.328;2024-01-11T04:06:59;-0.80;99.90
70550;DHT22;58101;48.658;2.328;2024-01-11T04:09:24;-1.00;99.90
70550;DHT22;58101;48.658;2.328;2024-01-11T04:11:50;-1.00;99.90
70550;DHT22;58101;48.658;2.328;2024-01-11T04:14:16;-0.90;99.90
70550;DHT22;58101;48.658;2.328;2024-01-11T04:16:44;-1.00;99.90
70550;DHT22;58101;48.658;2.328;2024-01-11T04:19:10;-1.00;99.90
70550;DHT22;58101;48.658;2.328;2024-01-11T04:21:36;-1.00;99.90
70550;DHT22;58101;48.658;2.328;2024-01-11T04:24:04;-1.00;99.90
70550;DHT22;58101;48.658;2.328;2024-01-11T04:26:31;-1.00;99.90
70550;DHT22;58101;48.658;2.328;2024-01-11T04:28:56;-1.00;99.90
70550;DHT22;58101;48.658;2.328;2024-01-11T04:31:25;-1.00;99.90
70550;DHT22;58101;48.658;2.328;2024-01-11T04:33:51;-1.00;99.90
70550;DHT22;58101;48.658;2.328;2024-01-11T04:36:16;-1.00;99.90
70550;DHT22;58101;48.658;2.328;2024-01-11T04:38:42;-1.00;99.90
70550;DHT22;58101;48.658;2.328;2024-01-11T04:41:12;-1.00;99.90
70550;DHT22;58101;48.658;2.328;2024-01-11T04:43:45;-1.00;99.90
70550;DHT22;58101;48.658;2.328;2024-01-11T04:46:21;-1.00;99.90
70550;DHT22;58101;48.658;2.328;2024-01-11T04:48:47;-1.00;99.90
70550;DHT22;58101;48.658;2.328;2024-01-11T04:51:15;-1.00;99.90
70550;DHT22;58101;48.658;2.328;2024-01-11T04:53:42;-1.00;99.90
70550;DHT22;58101;48.658;2.328;2024-01-11T04:56:09;-1.00;99.90
70550;DHT22;58101;48.658;2.328;2024-01-11T04:58:36;-1.00;99.90
70550;DHT22;58101;48.658;2.328;2024-01-11T05:01:04;-1.00;99.90
70550;DHT22;58101;48.658;2.328;2024-01-11T05:03:30;-1.00;99.90
70550;DHT22;58101;48.658;2.328;2024-01-11T05:05:57;-1.00;99.90
70550;DHT22;58101;48.658;2.328;2024-01-11T05:08:23;-1.00;99.90
70550;DHT22;58101;48.658;2.328;2024-01-11T05:10:49;-1.00;99.90
70550;DHT22;58101;48.658;2.328;2024-01-11T05:13:15;-1.00;99.90
70550;DHT22;58101;48.658;2.328;2024-01-11T05:15:40;-1.00;99.90
70550;DHT22;58101;48.658;2.328;2024-01-11T05:18:06;-1.00;99.90
70550;DHT22;58101;48.658;2.328;2024-01-11T05:20:32;-1.00;99.90
70550;DHT22;58101;48.658;2.328;2024-01-11T05:22:57;-1.00;99.90
70550;DHT22;58101;48.658;2.328;2024-01-11T05:25:23;-1.00;99.90
70550;DHT22;58101;48.658;2.328;2024-01-11T05:27:48;-1.00;99.90
70550;DHT22;58101;48.658;2.328;2024-01-11T05:30:14;-1.00;99.90
70550;DHT22;58101;48.658;2.328;2024-01-11T05:32:39;-1.00;99.90
70550;DHT22;58101;48.658;2.328;2024-01-11T05:35:05;-1.00;99.90
70550;DHT22;58101;48.658;2.328;2024-01-11T05:37:31;-1.00;99.90
70550;DHT22;58101;48.658;2.328;2024-01-11T05:39:56;-1.00;99.90
70550;DHT22;58101;48.658;2.328;2024-01-11T05:42:23;-1.00;99.90
70550;DHT22;58101;48.658;2.328;2024-01-11T05:44:48;-1.00;99.90
70550;DHT22;58101;48.658;2.328;2024-01-11T05:47:14;-1.00;99.90
70550;DHT22;58101;48.658;2.328;2024-01-11T05:49:40;-1.00;99.90
70550;DHT22;58101;48.658;2.328;2024-01-11T05:52:06;-1.00;99.90
70550;DHT22;58101;48.658;2.328;2024-01-11T05:54:31;-1.00;99.90
70550;DHT22;58101;48.658;2.328;2024-01-11T05:56:57;-1.00;99.90
70550;DHT22;58101;48.658;2.328;2024-01-11T05:59:24;-1.00;99.90
70550;DHT22;58101;48.658;2.328;2024-01-11T06:01:50;-1.00;99.90
70550;DHT22;58101;48.658;2.328;2024-01-11T06:04:15;-1.00;99.90
70550;DHT22;58101;48.658;2.328;2024-01-11T06:06:42;-1.00;99.90
70550;DHT22;58101;48.658;2.328;2024-01-11T06:09:08;-1.00;99.90
70550;DHT22;58101;48.658;2.328;2024-01-11T06:11:33;-1.00;99.90
70550;DHT22;58101;48.658;2.328;2024-01-11T06:13:59;-1.00;99.90
70550;DHT22;58101;48.658;2.328;2024-01-11T06:16:26;-1.00;99.90
70550;DHT22;58101;48.658;2.328;2024-01-11T06:18:52;-1.00;99.90
70550;DHT22;58101;48.658;2.328;2024-01-11T06:21:18;-1.10;99.90
70550;DHT22;58101;48.658;2.328;2024-01-11T06:23:44;-1.10;99.90
70550;DHT22;58101;48.658;2.328;2024-01-11T06:26:09;-1.10;99.90
70550;DHT22;58101;48.658;2.328;2024-01-11T06:28:35;-1.00;99.90
70550;DHT22;58101;48.658;2.328;2024-01-11T06:31:01;-0.90;99.90
70550;DHT22;58101;48.658;2.328;2024-01-11T06:33:26;-1.00;99.90
70550;DHT22;58101;48.658;2.328;2024-01-11T06:35:53;-1.00;99.90
70550;DHT22;58101;48.658;2.328;2024-01-11T06:38:19;-1.00;99.90
70550;DHT22;58101;48.658;2.328;2024-01-11T06:40:44;-1.10;99.90
70550;DHT22;58101;48.658;2.328;2024-01-11T06:43:10;-1.10;99.90
70550;DHT22;58101;48.658;2.328;2024-01-11T06:45:36;-1.10;99.90
70550;DHT22;58101;48.658;2.328;2024-01-11T06:48:02;-1.10;99.90
70550;DHT22;58101;48.658;2.328;2024-01-11T06:50:28;-1.10;99.90
70550;DHT22;58101;48.658;2.328;2024-01-11T06:52:54;-1.10;99.90
70550;DHT22;58101;48.658;2.328;2024-01-11T06:55:19;-1.10;99.90
70550;DHT22;58101;48.658;2.328;2024-01-11T06:57:48;-1.10;99.90
70550;DHT22;58101;48.658;2.328;2024-01-11T07:00:14;-1.10;99.90
70550;DHT22;58101;48.658;2.328;2024-01-11T07:02:39;-1.10;99.90
70550;DHT22;58101;48.658;2.328;2024-01-11T07:05:06;-1.10;99.90
70550;DHT22;58101;48.658;2.328;2024-01-11T07:07:31;-1.10;99.90
70550;DHT22;58101;48.658;2.328;2024-01-11T07:09:58;-1.10;99.90
70550;DHT22;58101;48.658;2.328;2024-01-11T07:12:24;-1.10;99.90
70550;DHT22;58101;48.658;2.328;2024-01-11T07:14:50;-1.10;99.90
70550;DHT22;58101;48.658;2.328;2024-01-11T07:17:15;-1.10;99.90
70550;DHT22;58101;48.658;2.328;2024-01-11T07:19:41;-1.10;99.90
70550;DHT22;58101;48.658;2.328;2024-01-11T07:22:07;-1.10;99.90
70550;DHT22;58101;48.658;2.328;2024-01-11T07:24:32;-1.10;99.90
70550;DHT22;58101;48.658;2.328;2024-01-11T07:27:04;-1.10;99.90
70550;DHT22;58101;48.658;2.328;2024-01-11T07:29:29;-1.10;99.90
70550;DHT22;58101;48.658;2.328;2024-01-11T07:31:55;-1.10;99.90
70550;DHT22;58101;48.658;2.328;2024-01-11T07:34:21;-1.10;99.90
70550;DHT22;58101;48.658;2.328;2024-01-11T07:36:46;-1.10;99.90
70550;DHT22;58101;48.658;2.328;2024-01-11T07:39:12;-1.10;99.90
70550;DHT22;58101;48.658;2.328;2024-01-11T07:41:37;-1.10;99.90
70550;DHT22;58101;48.658;2.328;2024-01-11T07:44:03;-1.10;99.90
70550;DHT22;58101;48.658;2.328;2024-01-11T07:46:29;-1.00;99.90
70550;DHT22;58101;48.658;2.328;2024-01-11T07:48:55;-1.00;99.90
70550;DHT22;58101;48.658;2.328;2024-01-11T07:51:20;-1.00;99.90
70550;DHT22;58101;48.658;2.328;2024-01-11T07:53:46;-1.00;99.90
70550;DHT22;58101;48.658;2.328;2024-01-11T07:56:12;-0.90;99.90
70550;DHT22;58101;48.658;2.328;2024-01-11T07:58:37;-0.90;99.90
70550;DHT22;58101;48.658;2.328;2024-01-11T08:01:03;-0.90;99.90
70550;DHT22;58101;48.658;2.328;2024-01-11T08:03:29;-0.90;99.90
70550;DHT22;58101;48.658;2.328;2024-01-11T08:05:55;-0.80;99.90
70550;DHT22;58101;48.658;2.328;2024-01-11T08:08:21;-0.80;99.90
70550;DHT22;58101;48.658;2.328;2024-01-11T08:10:47;-0.80;99.90
70550;DHT22;58101;48.658;2.328;2024-01-11T08:13:15;-0.70;99.90
70550;DHT22;58101;48.658;2.328;2024-01-11T08:15:43;-0.70;99.90
70550;DHT22;58101;48.658;2.328;2024-01-11T08:18:09;-0.60;99.90
70550;DHT22;58101;48.658;2.328;2024-01-11T08:20:35;-0.60;99.90
70550;DHT22;58101;48.658;2.328;2024-01-11T08:23:00;-0.60;99.90
70550;DHT22;58101;48.658;2.328;2024-01-11T08:25:26;-0.60;99.90
70550;DHT22;58101;48.658;2.328;2024-01-11T08:27:52;-0.50;99.90
70550;DHT22;58101;48.658;2.328;2024-01-11T08:30:17;-0.50;99.90
70550;DHT22;58101;48.658;2.328;2024-01-11T08:32:43;-0.50;99.90
70550;DHT22;58101;48.658;2.328;2024-01-11T08:35:09;-0.40;99.90
70550;DHT22;58101;48.658;2.328;2024-01-11T08:37:37;-0.40;99.90
70550;DHT22;58101;48.658;2.328;2024-01-11T08:40:05;-0.40;99.90
70550;DHT22;58101;48.658;2.328;2024-01-11T08:42:32;-0.30;99.90
70550;DHT22;58101;48.658;2.328;2024-01-11T08:44:57;-0.30;99.90
70550;DHT22;58101;48.658;2.328;2024-01-11T08:47:23;-0.20;99.90
70550;DHT22;58101;48.658;2.328;2024-01-11T08:49:48;-0.20;99.90
70550;DHT22;58101;48.658;2.328;2024-01-11T08:52:15;-0.20;99.90
70550;DHT22;58101;48.658;2.328;2024-01-11T08:54:40;-0.10;99.90
70550;DHT22;58101;48.658;2.328;2024-01-11T08:57:06;0.00;99.90
70550;DHT22;58101;48.658;2.328;2024-01-11T08:59:32;0.00;99.90
70550;DHT22;58101;48.658;2.328;2024-01-11T09:01:58;0.10;99.90
70550;DHT22;58101;48.658;2.328;2024-01-11T09:04:24;0.20;99.90
70550;DHT22;58101;48.658;2.328;2024-01-11T09:06:49;0.60;99.90
70550;DHT22;58101;48.658;2.328;2024-01-11T09:09:15;1.30;99.90
70550;DHT22;58101;48.658;2.328;2024-01-11T09:11:42;2.10;99.90
70550;DHT22;58101;48.658;2.328;2024-01-11T09:14:08;3.60;99.90
70550;DHT22;58101;48.658;2.328;2024-01-11T09:16:36;5.60;99.90
70550;DHT22;58101;48.658;2.328;2024-01-11T09:19:02;7.60;99.90
70550;DHT22;58101;48.658;2.328;2024-01-11T09:21:27;9.40;95.30
70550;DHT22;58101;48.658;2.328;2024-01-11T09:23:53;10.80;71.30
70550;DHT22;58101;48.658;2.328;2024-01-11T09:26:19;11.90;64.00
70550;DHT22;58101;48.658;2.328;2024-01-11T09:28:45;12.90;59.80
70550;DHT22;58101;48.658;2.328;2024-01-11T09:31:11;13.70;54.90
70550;DHT22;58101;48.658;2.328;2024-01-11T09:33:37;14.50;50.70
70550;DHT22;58101;48.658;2.328;2024-01-11T09:36:03;15.20;49.00
70550;DHT22;58101;48.658;2.328;2024-01-11T09:38:29;15.70;46.90
70550;DHT22;58101;48.658;2.328;2024-01-11T09:41:13;16.20;44.30
70550;DHT22;58101;48.658;2.328;2024-01-11T09:43:40;16.60;42.40
70550;DHT22;58101;48.658;2.328;2024-01-11T09:46:07;17.10;41.50
70550;DHT22;58101;48.658;2.328;2024-01-11T09:48:36;17.40;39.60
70550;DHT22;58101;48.658;2.328;2024-01-11T09:51:03;17.80;37.70
70550;DHT22;58101;48.658;2.328;2024-01-11T09:53:32;18.10;36.90
70550;DHT22;58101;48.658;2.328;2024-01-11T09:55:58;18.40;35.60
70550;DHT22;58101;48.658;2.328;2024-01-11T09:58:25;18.70;34.70
70550;DHT22;58101;48.658;2.328;2024-01-11T10:00:55;18.90;33.80
70550;DHT22;58101;48.658;2.328;2024-01-11T10:03:24;19.00;33.10
70550;DHT22;58101;48.658;2.328;2024-01-11T10:05:51;19.20;32.20
70550;DHT22;58101;48.658;2.328;2024-01-11T10:08:21;19.50;31.40
70550;DHT22;58101;48.658;2.328;2024-01-11T10:10:47;19.80;30.50
70550;DHT22;58101;48.658;2.328;2024-01-11T10:13:15;19.80;29.90
70550;DHT22;58101;48.658;2.328;2024-01-11T10:15:41;20.40;29.30
70550;DHT22;58101;48.658;2.328;2024-01-11T10:18:07;20.50;28.60
70550;DHT22;58101;48.658;2.328;2024-01-11T10:20:33;20.70;28.10
70550;DHT22;58101;48.658;2.328;2024-01-11T10:22:58;20.90;27.80
70550;DHT22;58101;48.658;2.328;2024-01-11T10:25:25;21.00;27.30
70550;DHT22;58101;48.658;2.328;2024-01-11T10:27:51;21.40;27.00
70550;DHT22;58101;48.658;2.328;2024-01-11T10:30:17;21.50;26.20
70550;DHT22;58101;48.658;2.328;2024-01-11T10:32:44;21.50;26.20
70550;DHT22;58101;48.658;2.328;2024-01-11T10:35:10;21.50;25.80
70550;DHT22;58101;48.658;2.328;2024-01-11T10:37:36;21.50;25.40
70550;DHT22;58101;48.658;2.328;2024-01-11T10:40:06;21.60;25.30
70550;DHT22;58101;48.658;2.328;2024-01-11T10:42:41;21.90;25.00
70550;DHT22;58101;48.658;2.328;2024-01-11T10:45:17;22.00;24.60
70550;DHT22;58101;48.658;2.328;2024-01-11T10:47:56;22.00;24.30
70550;DHT22;58101;48.658;2.328;2024-01-11T10:50:30;22.00;24.40
70550;DHT22;58101;48.658;2.328;2024-01-11T10:53:03;22.10;24.20
70550;DHT22;58101;48.658;2.328;2024-01-11T10:55:32;22.30;24.10
70550;DHT22;58101;48.658;2.328;2024-01-11T10:57:59;22.50;23.70
70550;DHT22;58101;48.658;2.328;2024-01-11T11:00:27;22.50;23.20
70550;DHT22;58101;48.658;2.328;2024-01-11T11:02:53;22.40;23.30
70550;DHT22;58101;48.658;2.328;2024-01-11T11:05:21;22.60;23.10
70550;DHT22;58101;48.658;2.328;2024-01-11T11:07:49;22.40;22.90
70550;DHT22;58101;48.658;2.328;2024-01-11T11:10:17;22.30;22.90
70550;DHT22;58101;48.658;2.328;2024-01-11T11:12:45;22.40;23.80
70550;DHT22;58101;48.658;2.328;2024-01-11T11:15:12;22.40;22.90
70550;DHT22;58101;48.658;2.328;2024-01-11T11:17:42;22.30;22.60
70550;DHT22;58101;48.658;2.328;2024-01-11T11:20:10;22.20;22.30
70550;DHT22;58101;48.658;2.328;2024-01-11T11:22:42;22.20;22.40
70550;DHT22;58101;48.658;2.328;2024-01-11T11:25:08;22.30;22.50
70550;DHT22;58101;48.658;2.328;2024-01-11T11:27:35;22.30;22.20
70550;DHT22;58101;48.658;2.328;2024-01-11T11:30:01;22.20;22.20
70550;DHT22;58101;48.658;2.328;2024-01-11T11:32:43;22.30;22.20
70550;DHT22;58101;48.658;2.328;2024-01-11T11:35:08;22.20;22.10
70550;DHT22;58101;48.658;2.328;2024-01-11T11:37:37;21.90;21.80
70550;DHT22;58101;48.658;2.328;2024-01-11T11:40:06;21.80;22.20
70550;DHT22;58101;48.658;2.328;2024-01-11T11:42:36;21.70;22.30
70550;DHT22;58101;48.658;2.328;2024-01-11T11:45:02;21.80;22.40
70550;DHT22;58101;48.658;2.328;2024-01-11T11:47:35;21.70;22.20
70550;DHT22;58101;48.658;2.328;2024-01-11T11:52:36;21.40;22.20
70550;DHT22;58101;48.658;2.328;2024-01-11T11:55:02;21.40;22.10
70550;DHT22;58101;48.658;2.328;2024-01-11T11:57:28;21.20;22.10
70550;DHT22;58101;48.658;2.328;2024-01-11T11:59:57;21.40;22.30
70550;DHT22;58101;48.658;2.328;2024-01-11T12:02:42;21.30;22.10
70550;DHT22;58101;48.658;2.328;2024-01-11T12:05:07;21.30;22.30
70550;DHT22;58101;48.658;2.328;2024-01-11T12:07:33;21.20;22.40
70550;DHT22;58101;48.658;2.328;2024-01-11T12:09:59;21.10;22.50
70550;DHT22;58101;48.658;2.328;2024-01-11T12:12:25;21.10;22.60
70550;DHT22;58101;48.658;2.328;2024-01-11T12:14:51;21.20;22.70
70550;DHT22;58101;48.658;2.328;2024-01-11T12:17:18;21.30;22.60
70550;DHT22;58101;48.658;2.328;2024-01-11T12:19:44;21.10;22.30
70550;DHT22;58101;48.658;2.328;2024-01-11T12:22:09;20.80;22.50
70550;DHT22;58101;48.658;2.328;2024-01-11T12:24:35;20.60;22.90
70550;DHT22;58101;48.658;2.328;2024-01-11T12:27:01;20.50;22.90
70550;DHT22;58101;48.658;2.328;2024-01-11T12:29:30;20.40;23.00
70550;DHT22;58101;48.658;2.328;2024-01-11T12:31:57;20.30;23.10
70550;DHT22;58101;48.658;2.328;2024-01-11T12:34:24;20.20;23.20
70550;DHT22;58101;48.658;2.328;2024-01-11T12:36:50;20.10;24.30
70550;DHT22;58101;48.658;2.328;2024-01-11T12:39:19;20.20;23.60
70550;DHT22;58101;48.658;2.328;2024-01-11T12:41:46;19.70;23.40
70550;DHT22;58101;48.658;2.328;2024-01-11T12:44:11;19.30;23.80
70550;DHT22;58101;48.658;2.328;2024-01-11T12:46:37;18.60;24.40
70550;DHT22;58101;48.658;2.328;2024-01-11T12:49:03;17.80;25.40
70550;DHT22;58101;48.658;2.328;2024-01-11T12:51:28;16.70;26.30
70550;DHT22;58101;48.658;2.328;2024-01-11T12:53:54;16.00;27.50
70550;DHT22;58101;48.658;2.328;2024-01-11T12:56:24;15.40;28.40
70550;DHT22;58101;48.658;2.328;2024-01-11T12:58:50;14.60;29.10
70550;DHT22;58101;48.658;2.328;2024-01-11T13:01:15;14.20;30.00
70550;DHT22;58101;48.658;2.328;2024-01-11T13:03:44;13.80;30.70
70550;DHT22;58101;48.658;2.328;2024-01-11T13:06:11;13.40;31.30
70550;DHT22;58101;48.658;2.328;2024-01-11T13:08:37;13.20;32.10
70550;DHT22;58101;48.658;2.328;2024-01-11T13:11:05;12.90;32.60
70550;DHT22;58101;48.658;2.328;2024-01-11T13:13:35;12.50;33.10
70550;DHT22;58101;48.658;2.328;2024-01-11T13:16:02;12.40;33.70
70550;DHT22;58101;48.658;2.328;2024-01-11T13:18:34;12.20;34.10
70550;DHT22;58101;48.658;2.328;2024-01-11T13:21:00;12.00;34.40
70550;DHT22;58101;48.658;2.328;2024-01-11T13:23:25;12.10;34.70
70550;DHT22;58101;48.658;2.328;2024-01-11T13:25:51;11.90;34.90
70550;DHT22;58101;48.658;2.328;2024-01-11T13:28:17;12.00;35.00
70550;DHT22;58101;48.658;2.328;2024-01-11T13:30:44;11.60;34.90
70550;DHT22;58101;48.658;2.328;2024-01-11T13:33:15;11.20;35.70
70550;DHT22;58101;48.658;2.328;2024-01-11T13:35:43;10.80;36.80
70550;DHT22;58101;48.658;2.328;2024-01-11T13:38:08;10.20;37.80
70550;DHT22;58101;48.658;2.328;2024-01-11T13:40:34;9.70;38.80
70550;DHT22;58101;48.658;2.328;2024-01-11T13:43:00;9.30;39.90
70550;DHT22;58101;48.658;2.328;2024-01-11T13:45:29;9.00;40.90
70550;DHT22;58101;48.658;2.328;2024-01-11T13:47:55;8.50;41.70
70550;DHT22;58101;48.658;2.328;2024-01-11T13:50:22;8.10;43.50
70550;DHT22;58101;48.658;2.328;2024-01-11T13:52:47;7.70;44.10
70550;DHT22;58101;48.658;2.328;2024-01-11T13:55:13;7.40;45.10
70550;DHT22;58101;48.658;2.328;2024-01-11T13:57:39;7.20;45.80
70550;DHT22;58101;48.658;2.328;2024-01-11T14:00:07;7.00;46.30
70550;DHT22;58101;48.658;2.328;2024-01-11T14:02:36;6.70;47.50
70550;DHT22;58101;48.658;2.328;2024-01-11T14:05:03;6.50;47.60
70550;DHT22;58101;48.658;2.328;2024-01-11T14:07:29;6.40;48.40
70550;DHT22;58101;48.658;2.328;2024-01-11T14:09:55;6.30;48.90
70550;DHT22;58101;48.658;2.328;2024-01-11T14:12:21;6.20;49.30
70550;DHT22;58101;48.658;2.328;2024-01-11T14:14:47;6.00;50.40
70550;DHT22;58101;48.658;2.328;2024-01-11T14:17:13;5.90;50.40
70550;DHT22;58101;48.658;2.328;2024-01-11T14:19:38;5.80;50.40
70550;DHT22;58101;48.658;2.328;2024-01-11T14:22:04;5.80;51.10
70550;DHT22;58101;48.658;2.328;2024-01-11T14:24:29;5.80;51.20
70550;DHT22;58101;48.658;2.328;2024-01-11T14:26:55;5.60;51.10
70550;DHT22;58101;48.658;2.328;2024-01-11T14:29:21;5.60;51.70
70550;DHT22;58101;48.658;2.328;2024-01-11T14:31:46;5.50;51.70
70550;DHT22;58101;48.658;2.328;2024-01-11T14:34:12;5.50;52.30
70550;DHT22;58101;48.658;2.328;2024-01-11T14:36:38;5.30;52.50
70550;DHT22;58101;48.658;2.328;2024-01-11T14:39:04;5.30;52.90
70550;DHT22;58101;48.658;2.328;2024-01-11T14:41:30;5.20;52.60
70550;DHT22;58101;48.658;2.328;2024-01-11T14:43:57;5.20;53.10
70550;DHT22;58101;48.658;2.328;2024-01-11T14:46:23;5.10;53.30
70550;DHT22;58101;48.658;2.328;2024-01-11T14:48:49;5.10;53.40
70550;DHT22;58101;48.658;2.328;2024-01-11T14:51:14;5.00;53.80
70550;DHT22;58101;48.658;2.328;2024-01-11T14:53:41;4.90;54.00
70550;DHT22;58101;48.658;2.328;2024-01-11T14:56:06;4.90;53.90
70550;DHT22;58101;48.658;2.328;2024-01-11T14:58:32;4.80;54.00
70550;DHT22;58101;48.658;2.328;2024-01-11T15:00:58;4.90;54.00
70550;DHT22;58101;48.658;2.328;2024-01-11T15:03:23;4.80;54.50
70550;DHT22;58101;48.658;2.328;2024-01-11T15:05:52;4.70;54.30
70550;DHT22;58101;48.658;2.328;2024-01-11T15:08:17;4.70;54.90
70550;DHT22;58101;48.658;2.328;2024-01-11T15:10:44;4.60;55.00
70550;DHT22;58101;48.658;2.328;2024-01-11T15:13:10;4.60;55.00
70550;DHT22;58101;48.658;2.328;2024-01-11T15:15:36;4.60;55.70
70550;DHT22;58101;48.658;2.328;2024-01-11T15:18:02;4.50;55.70
70550;DHT22;58101;48.658;2.328;2024-01-11T15:20:28;4.50;56.30
70550;DHT22;58101;48.658;2.328;2024-01-11T15:22:54;4.40;56.60
70550;DHT22;58101;48.658;2.328;2024-01-11T15:25:19;4.40;56.60
70550;DHT22;58101;48.658;2.328;2024-01-11T15:27:46;4.30;57.20
70550;DHT22;58101;48.658;2.328;2024-01-11T15:30:12;4.20;58.10